Time;durP1;ratioP1;P1;durP2;ratioP2;P2;SDS_P1;SDS_P2;PMS_P1;PMS_P2;Temp;Humidity;BMP_temperature;BMP_pressure;BME280_temperature;BME280_humidity;BME280_pressure;Samples;Min_cycle;Max_cycle;Signal;HPM_P1;HPM_P2
2023/01/11 00:02:13;;;;;;;3.25;2.15;;;5.10;44.60;;;;;;4978756;28;20451;-72
2023/01/11 00:04:40;;;;;;;3.55;2.28;;;5.10;44.60;;;;;;4977069;28;20035;-73
2023/01/11 00:07:06;;;;;;;3.35;2.50;;;5.10;44.70;;;;;;4974518;28;20061;-73
2023/01/11 00:09:32;;;;;;;4.75;2.83;;;5.10;44.50;;;;;;4977112;28;20058;-73
2023/01/11 00:11:58;;;;;;;3.20;1.90;;;5.10;44.40;;;;;;4974911;28;20522;-72
2023/01/11 00:14:24;;;;;;;3.63;2.55;;;5.00;44.50;;;;;;4979066;28;20031;-75
2023/01/11 00:16:50;;;;;;;3.97;2.30;;;5.10;44.60;;;;;;4962891;28;20031;-72
2023/01/11 00:19:16;;;;;;;4.50;2.33;;;5.10;44.80;;;;;;4981953;28;20069;-73
2023/01/11 00:21:41;;;;;;;4.20;2.20;;;5.10;45.00;;;;;;4981904;28;20546;-72
2023/01/11 00:24:07;;;;;;;3.72;2.38;;;5.10;45.20;;;;;;4981954;28;20042;-72
2023/01/11 00:26:33;;;;;;;3.70;2.22;;;5.10;45.20;;;;;;4982664;28;20058;-72
2023/01/11 00:28:59;;;;;;;3.47;2.05;;;5.10;44.90;;;;;;4980516;28;20492;-72
2023/01/11 00:31:25;;;;;;;4.43;2.42;;;5.10;44.70;;;;;;4981287;28;20035;-72
2023/01/11 00:33:51;;;;;;;5.72;2.70;;;5.10;44.60;;;;;;4970441;28;20055;-72
2023/01/11 00:36:17;;;;;;;4.28;2.45;;;5.10;44.60;;;;;;4980063;28;20073;-72
2023/01/11 00:38:45;;;;;;;4.63;2.40;;;5.10;44.60;;;;;;4982743;28;20483;-72
2023/01/11 00:49:26;;;;;;;4.97;2.60;;;5.10;44.40;;;;;;4980827;28;20051;-72
2023/01/11 00:51:52;;;;;;;4.10;2.30;;;5.10;44.40;;;;;;4965566;28;20049;-72
2023/01/11 00:54:19;;;;;;;6.93;2.60;;;5.10;44.60;;;;;;4980042;28;20038;-72
2023/01/11 00:56:45;;;;;;;3.17;2.10;;;5.10;44.70;;;;;;4979898;28;20106;-72
2023/01/11 00:59:11;;;;;;;3.83;2.17;;;5.00;44.50;;;;;;4981017;28;20041;-72
2023/01/11 01:01:37;;;;;;;3.63;2.15;;;5.10;44.60;;;;;;4980723;28;20038;-72
2023/01/11 01:04:03;;;;;;;4.63;2.58;;;5.00;44.60;;;;;;4980758;28;20066;-72
2023/01/11 01:06:29;;;;;;;3.65;2.13;;;5.10;44.70;;;;;;4977877;28;20085;-72
2023/01/11 01:08:55;;;;;;;3.13;2.30;;;5.10;44.80;;;;;;4978860;28;20375;-74
2023/01/11 01:11:23;;;;;;;3.45;2.15;;;5.10;44.90;;;;;;4981200;28;20030;-74
2023/01/11 01:16:33;;;;;;;5.68;2.65;;;5.10;44.80;;;;;;4980228;28;20046;-74
2023/01/11 01:18:59;;;;;;;4.65;2.22;;;5.10;44.60;;;;;;4979830;28;20065;-74
2023/01/11 01:21:26;;;;;;;4.57;2.47;;;5.20;44.70;;;;;;4979695;28;20129;-73
2023/01/11 01:23:55;;;;;;;4.78;2.25;;;5.10;44.70;;;;;;4978876;28;20092;-73
2023/01/11 01:26:22;;;;;;;3.60;2.30;;;5.10;44.80;;;;;;4978598;28;20085;-74
2023/01/11 01:28:49;;;;;;;3.83;2.28;;;5.10;44.60;;;;;;4980373;28;20037;-74
2023/01/11 01:31:15;;;;;;;4.72;2.95;;;5.10;44.50;;;;;;4979350;28;20918;-74
2023/01/11 01:33:41;;;;;;;2.97;2.40;;;5.10;44.60;;;;;;4979961;28;20045;-73
2023/01/11 01:36:08;;;;;;;5.75;2.45;;;5.10;44.60;;;;;;4970174;28;20041;-74
2023/01/11 01:38:34;;;;;;;3.67;2.20;;;5.10;44.50;;;;;;4982220;28;20133;-74
2023/01/11 01:41:00;;;;;;;4.45;2.60;;;5.10;44.40;;;;;;4981203;28;20038;-74
2023/01/11 01:43:50;;;;;;;4.82;2.65;;;5.10;44.40;;;;;;4980606;28;20090;-75
2023/01/11 01:46:17;;;;;;;4.75;2.33;;;5.10;44.40;;;;;;4979620;28;20513;-73
2023/01/11 01:48:56;;;;;;;3.83;2.38;;;5.10;44.50;;;;;;4979640;28;20041;-73
2023/01/11 01:51:30;;;;;;;4.80;2.72;;;5.10;44.50;;;;;;4952511;28;20057;-72
2023/01/11 01:54:01;;;;;;;3.22;2.42;;;5.10;44.40;;;;;;4979801;28;20047;-73
2023/01/11 01:56:32;;;;;;;3.92;2.63;;;5.10;44.40;;;;;;4979810;28;20132;-72
2023/01/11 01:59:06;;;;;;;4.70;2.40;;;5.10;44.40;;;;;;4978799;28;20022;-74
2023/01/11 02:01:47;;;;;;;4.25;2.50;;;5.10;44.30;;;;;;4980658;28;20033;-73
2023/01/11 02:04:28;;;;;;;4.18;2.45;;;5.10;44.60;;;;;;4979845;28;20041;-74
2023/01/11 02:06:59;;;;;;;4.18;2.60;;;5.20;44.60;;;;;;4978783;28;20126;-74
2023/01/11 02:09:35;;;;;;;5.57;2.53;;;5.20;44.60;;;;;;4980966;28;20046;-74
2023/01/11 02:12:01;;;;;;;3.50;2.60;;;5.20;44.60;;;;;;4979898;28;20085;-74
2023/01/11 02:14:31;;;;;;;3.70;2.40;;;5.20;44.50;;;;;;4977822;28;20038;-74
2023/01/11 02:16:57;;;;;;;3.30;2.50;;;5.20;44.50;;;;;;4979281;28;20046;-73
2023/01/11 02:19:46;;;;;;;4.68;2.88;;;5.20;44.40;;;;;;4976295;28;20035;-73
2023/01/11 02:22:30;;;;;;;4.07;2.60;;;5.20;44.40;;;;;;4979850;28;20062;-73
2023/01/11 02:25:41;;;;;;;3.42;2.50;;;5.20;44.30;;;;;;4977474;28;20035;-73
2023/01/11 02:28:25;;;;;;;3.78;2.67;;;5.20;44.20;;;;;;4899619;29;20131;-73
2023/01/11 02:30:56;;;;;;;3.38;2.40;;;5.20;44.20;;;;;;4899257;29;20538;-73
2023/01/11 02:33:29;;;;;;;5.18;2.83;;;5.10;44.20;;;;;;4901078;29;20041;-73
2023/01/11 02:35:58;;;;;;;4.53;2.58;;;5.20;44.40;;;;;;4899650;29;20404;-73
2023/01/11 02:38:24;;;;;;;4.28;2.90;;;5.10;44.40;;;;;;4901421;29;20571;-73
2023/01/11 02:40:54;;;;;;;3.25;2.53;;;5.10;44.30;;;;;;4902097;29;20056;-73
2023/01/11 02:46:31;;;;;;;6.30;2.47;;;5.10;44.30;;;;;;4899261;29;20044;-73
2023/01/11 02:49:00;;;;;;;2.67;2.25;;;5.10;44.40;;;;;;4883054;29;20507;-73
2023/01/11 02:51:59;;;;;;;5.88;2.88;;;5.20;44.40;;;;;;4901157;29;20061;-73
2023/01/11 02:54:26;;;;;;;4.20;2.95;;;5.20;44.40;;;;;;4898944;29;20419;-73
2023/01/11 02:56:57;;;;;;;3.92;2.60;;;5.20;44.40;;;;;;4899154;29;20047;-72
2023/01/11 02:59:29;;;;;;;5.70;3.03;;;5.20;44.30;;;;;;4899688;29;20036;-73
2023/01/11 03:01:55;;;;;;;3.85;2.40;;;5.20;44.30;;;;;;4890163;29;20532;-73
2023/01/11 03:04:32;;;;;;;4.03;2.80;;;5.20;44.30;;;;;;4932978;28;20133;-72
2023/01/11 03:07:36;;;;;;;4.05;2.47;;;5.20;44.20;;;;;;4977681;28;20035;-72
2023/01/11 03:10:26;;;;;;;6.47;2.67;;;5.20;44.20;;;;;;4966710;28;20062;-72
2023/01/11 03:13:10;;;;;;;5.22;2.75;;;5.20;44.20;;;;;;4979137;28;20038;-73
2023/01/11 03:15:52;;;;;;;4.93;2.72;;;5.20;44.10;;;;;;4979311;28;20125;-72
2023/01/11 03:18:47;;;;;;;4.68;2.65;;;5.20;44.10;;;;;;4978302;28;20952;-77
2023/01/11 03:21:34;;;;;;;4.95;2.95;;;5.20;44.20;;;;;;4974834;28;20057;-76
2023/01/11 03:24:18;;;;;;;5.93;3.22;;;5.20;44.20;;;;;;4978816;28;20041;-75
2023/01/11 03:27:04;;;;;;;4.22;2.90;;;5.20;44.20;;;;;;4976518;28;20526;-75
2023/01/11 03:29:36;;;;;;;4.93;2.88;;;5.10;44.10;;;;;;4967257;28;20034;-75
2023/01/11 03:32:43;;;;;;;4.72;3.28;;;5.10;44.30;;;;;;4967372;28;20026;-75
2023/01/11 03:35:26;;;;;;;;;;;5.20;44.30;;;;;;4964467;28;20528;-75
2023/01/11 03:38:08;;;;;;;5.07;2.83;;;5.20;44.20;;;;;;4978142;28;19965;-75
2023/01/11 03:40:41;;;;;;;5.40;2.67;;;5.20;44.30;;;;;;4979813;28;20129;-75
2023/01/11 03:43:11;;;;;;;5.47;3.30;;;5.20;44.30;;;;;;4967371;28;20161;-75
2023/01/11 03:46:05;;;;;;;4.78;3.10;;;5.20;44.20;;;;;;4966411;28;20832;-74
2023/01/11 03:48:45;;;;;;;4.57;2.75;;;5.20;44.30;;;;;;4976956;28;20038;-74
2023/01/11 03:51:14;;;;;;;5.22;2.90;;;5.20;44.20;;;;;;4982029;28;20049;-76
2023/01/11 03:53:45;;;;;;;4.22;2.38;;;5.20;44.10;;;;;;4971550;28;20030;-74
2023/01/11 03:56:14;;;;;;;5.00;3.13;;;5.10;44.00;;;;;;4981997;28;20121;-76
2023/01/11 03:58:40;;;;;;;4.47;2.97;;;5.10;43.90;;;;;;4980409;28;20077;-72
2023/01/11 04:01:07;;;;;;;4.60;3.20;;;5.10;44.00;;;;;;4981946;28;20495;-72
2023/01/11 04:03:33;;;;;;;4.30;2.90;;;5.10;43.90;;;;;;4981882;28;20358;-73
2023/01/11 04:06:01;;;;;;;4.72;2.50;;;5.10;43.90;;;;;;4979137;28;20552;-72
2023/01/11 04:08:27;;;;;;;4.72;2.90;;;5.10;44.00;;;;;;4980709;28;20393;-72
2023/01/11 04:10:53;;;;;;;4.28;3.25;;;5.10;43.90;;;;;;4979273;28;20026;-76
2023/01/11 04:13:19;;;;;;;4.45;3.00;;;5.10;44.00;;;;;;4965155;28;20101;-78
2023/01/11 04:15:45;;;;;;;4.43;2.80;;;5.10;44.10;;;;;;4980627;28;20026;-76
2023/01/11 04:18:11;;;;;;;5.47;4.03;;;5.20;44.10;;;;;;4980933;28;20034;-77
2023/01/11 04:20:39;;;;;;;4.75;2.97;;;5.20;44.10;;;;;;4978370;28;20026;-76
2023/01/11 04:23:07;;;;;;;4.63;3.20;;;5.20;44.00;;;;;;4984176;28;20026;-77
2023/01/11 04:25:33;;;;;;;5.13;3.15;;;5.20;44.00;;;;;;4979389;28;20041;-77
2023/01/11 04:27:59;;;;;;;4.80;2.70;;;5.20;43.90;;;;;;4982030;28;20046;-76
2023/01/11 04:30:25;;;;;;;4.85;2.90;;;5.20;43.90;;;;;;4971109;28;20031;-80
2023/01/11 04:32:51;;;;;;;5.10;2.83;;;5.20;44.10;;;;;;4963252;28;20556;-76
2023/01/11 04:35:17;;;;;;;6.35;3.17;;;5.20;44.40;;;;;;4965456;28;20042;-84
2023/01/11 04:37:43;;;;;;;5.38;2.78;;;5.20;44.40;;;;;;4966732;28;20446;-82
2023/01/11 04:40:09;;;;;;;5.10;3.10;;;5.20;44.40;;;;;;4979822;28;20045;-75
2023/01/11 04:42:35;;;;;;;4.75;2.88;;;5.20;44.40;;;;;;4980639;28;20065;-81
2023/01/11 04:45:04;;;;;;;6.32;3.22;;;5.20;44.40;;;;;;4970519;28;20077;-83
2023/01/11 04:47:31;;;;;;;6.07;3.45;;;5.20;44.40;;;;;;4970796;28;20092;-80
2023/01/11 04:49:57;;;;;;;6.57;3.60;;;5.20;44.50;;;;;;4980494;28;20134;-81
2023/01/11 04:52:23;;;;;;;5.07;3.17;;;5.30;44.40;;;;;;4980989;28;20129;-81
2023/01/11 04:54:51;;;;;;;5.35;3.20;;;5.20;44.30;;;;;;4970294;28;20042;-83
2023/01/11 04:57:18;;;;;;;5.97;3.30;;;5.20;44.40;;;;;;4980008;28;20041;-82
2023/01/11 04:59:45;;;;;;;7.38;3.42;;;5.20;44.60;;;;;;4981157;28;20102;-80
2023/01/11 05:02:12;;;;;;;4.50;2.88;;;5.20;44.60;;;;;;4978306;28;20505;-80
2023/01/11 05:04:38;;;;;;;5.43;3.50;;;5.20;44.70;;;;;;4968525;28;20049;-80
2023/01/11 05:07:08;;;;;;;5.78;3.35;;;5.30;44.90;;;;;;4979510;28;20035;-79
2023/01/11 05:09:34;;;;;;;5.03;3.00;;;5.30;45.00;;;;;;4978568;28;20038;-80
2023/01/11 05:12:00;;;;;;;4.85;3.00;;;5.30;45.10;;;;;;4980577;28;20068;-79
2023/01/11 05:14:26;;;;;;;5.78;3.30;;;5.30;45.00;;;;;;4962613;28;20061;-81
2023/01/11 05:16:52;;;;;;;5.70;3.35;;;5.30;45.00;;;;;;4980474;28;20176;-81
2023/01/11 05:19:20;;;;;;;6.22;3.55;;;5.40;45.00;;;;;;4979818;28;20468;-78
2023/01/11 05:21:45;;;;;;;4.70;3.05;;;5.40;45.00;;;;;;4981891;28;20058;-81
2023/01/11 05:24:15;;;;;;;5.63;2.92;;;5.40;44.90;;;;;;4980444;28;20486;-82
2023/01/11 05:26:43;;;;;;;6.00;3.50;;;5.40;44.70;;;;;;4980148;28;20054;-80
2023/01/11 05:29:12;;;;;;;4.20;2.95;;;5.40;44.50;;;;;;4963309;28;20049;-79
2023/01/11 05:31:39;;;;;;;7.10;3.35;;;5.40;44.60;;;;;;4968731;28;20049;-80
2023/01/11 05:34:06;;;;;;;4.97;3.13;;;5.30;44.40;;;;;;4973083;28;20137;-79
2023/01/11 05:36:33;;;;;;;5.32;3.17;;;5.30;44.40;;;;;;4979691;28;20038;-80
2023/01/11 05:38:59;;;;;;;5.25;3.10;;;5.30;44.40;;;;;;4977254;28;20169;-80
2023/01/11 05:41:26;;;;;;;4.22;3.00;;;5.30;44.60;;;;;;4983212;28;20062;-79
2023/01/11 05:46:40;;;;;;;4.07;2.70;;;5.30;45.00;;;;;;4979763;28;20041;-80
2023/01/11 05:49:07;;;;;;;5.53;3.03;;;5.40;45.00;;;;;;4982984;28;20034;-81
2023/01/11 05:51:33;;;;;;;5.85;3.20;;;5.40;45.00;;;;;;4978244;28;20042;-82
2023/01/11 05:54:01;;;;;;;5.47;2.90;;;5.40;45.00;;;;;;4979598;28;20038;-81
2023/01/11 05:56:28;;;;;;;4.82;3.13;;;5.40;45.00;;;;;;4973986;28;20038;-81
2023/01/11 05:58:54;;;;;;;4.45;2.85;;;5.40;44.80;;;;;;4986105;28;20042;-81
2023/01/11 06:01:21;;;;;;;3.40;2.60;;;5.40;44.90;;;;;;4974335;28;20057;-80
2023/01/11 06:03:48;;;;;;;5.45;2.90;;;5.50;45.10;;;;;;4979750;28;20464;-82
2023/01/11 06:06:15;;;;;;;5.28;3.22;;;5.50;45.10;;;;;;4981377;28;20587;-81
2023/01/11 06:08:41;;;;;;;5.47;2.88;;;5.50;45.20;;;;;;4991492;28;20440;-81
2023/01/11 06:11:07;;;;;;;4.22;3.05;;;5.50;45.20;;;;;;4974316;28;20034;-81
2023/01/11 06:13:33;;;;;;;4.57;3.05;;;5.50;45.20;;;;;;4969987;28;20521;-81
2023/01/11 06:16:10;;;;;;;4.70;2.88;;;5.50;45.10;;;;;;4996365;28;20133;-81
2023/01/11 06:18:39;;;;;;;4.70;3.00;;;5.50;45.00;;;;;;5010399;28;20084;-80
2023/01/11 06:21:06;;;;;;;5.47;2.90;;;5.40;44.80;;;;;;4991812;28;20038;-81
2023/01/11 06:23:34;;;;;;;5.68;3.10;;;5.50;44.90;;;;;;4973181;28;20485;-79
2023/01/11 06:26:04;;;;;;;4.72;2.90;;;5.50;44.80;;;;;;4991418;28;20541;-81
2023/01/11 06:28:30;;;;;;;4.93;2.92;;;5.50;45.00;;;;;;4991366;28;20034;-81
2023/01/11 06:30:57;;;;;;;4.25;2.80;;;5.50;45.20;;;;;;4991302;28;20169;-81
2023/01/11 06:33:25;;;;;;;4.60;2.97;;;5.50;45.20;;;;;;4952632;28;20037;-81
2023/01/11 06:35:51;;;;;;;3.85;2.88;;;5.50;45.20;;;;;;4979998;28;20038;-81
2023/01/11 06:38:19;;;;;;;4.18;2.80;;;5.50;45.00;;;;;;4991918;28;20127;-81
2023/01/11 06:40:54;;;;;;;5.75;2.88;;;5.50;44.80;;;;;;5002697;28;20181;-81
2023/01/11 06:43:21;;;;;;;5.63;2.95;;;5.50;44.80;;;;;;4994854;28;20042;-81
2023/01/11 06:45:48;;;;;;;6.43;2.95;;;5.50;44.90;;;;;;4976998;28;20116;-82
2023/01/11 06:48:16;;;;;;;5.25;2.83;;;5.50;44.90;;;;;;4991440;28;20161;-81
2023/01/11 06:50:43;;;;;;;4.78;3.05;;;5.60;44.90;;;;;;4990993;28;20030;-81
2023/01/11 06:53:09;;;;;;;4.22;3.08;;;5.60;45.00;;;;;;4971017;28;20512;-81
2023/01/11 06:55:34;;;;;;;4.47;3.33;;;5.60;44.80;;;;;;4980269;28;20035;-81
2023/01/11 06:58:00;;;;;;;5.57;3.00;;;5.60;44.60;;;;;;4965221;28;20050;-81
2023/01/11 07:00:26;;;;;;;4.40;3.10;;;5.60;44.60;;;;;;4976535;28;20046;-81
2023/01/11 07:02:52;;;;;;;3.95;2.70;;;5.60;44.30;;;;;;4950997;28;20042;-81
2023/01/11 07:05:18;;;;;;;5.47;2.83;;;5.60;44.20;;;;;;4985175;28;20034;-80
2023/01/11 07:07:44;;;;;;;7.18;3.28;;;5.60;44.20;;;;;;4978175;28;20130;-79
2023/01/11 07:10:13;;;;;;;5.03;3.30;;;5.70;44.70;;;;;;4966904;28;20128;-81
2023/01/11 07:12:39;;;;;;;5.78;3.40;;;5.60;44.00;;;;;;4958494;28;20039;-79
2023/01/11 07:15:08;;;;;;;4.43;3.08;;;5.60;44.00;;;;;;4966622;28;20031;-80
2023/01/11 07:17:34;;;;;;;4.95;2.75;;;5.70;44.10;;;;;;4978383;28;20464;-81
2023/01/11 07:20:00;;;;;;;5.53;3.25;;;5.60;44.10;;;;;;4976566;28;20030;-81
2023/01/11 07:22:26;;;;;;;5.75;2.90;;;5.60;44.10;;;;;;4980252;28;20214;-81
2023/01/11 07:24:52;;;;;;;5.25;2.95;;;5.60;44.10;;;;;;4978552;28;20034;-78
2023/01/11 07:27:19;;;;;;;4.10;2.78;;;5.60;44.20;;;;;;4981852;28;20042;-80
2023/01/11 07:29:46;;;;;;;3.47;2.50;;;5.70;44.50;;;;;;4981031;28;20050;-80
2023/01/11 07:32:12;;;;;;;4.45;2.88;;;5.70;44.50;;;;;;4970995;28;20030;-79
2023/01/11 07:34:38;;;;;;;5.78;2.90;;;5.70;44.30;;;;;;4970952;28;20038;-81
2023/01/11 07:37:04;;;;;;;3.60;2.85;;;5.70;44.20;;;;;;4963759;28;20061;-80
2023/01/11 07:39:30;;;;;;;3.70;2.40;;;5.70;44.30;;;;;;4982874;28;20062;-81
2023/01/11 07:44:40;;;;;;;4.95;3.20;;;5.80;44.20;;;;;;4980622;28;20046;-80
2023/01/11 07:47:06;;;;;;;5.07;2.83;;;5.80;44.20;;;;;;4962615;28;20030;-80
2023/01/11 07:49:32;;;;;;;6.00;3.35;;;5.80;44.30;;;;;;4981306;28;20100;-79
2023/01/11 07:51:58;;;;;;;5.75;2.70;;;5.80;44.20;;;;;;4984568;28;20046;-81
2023/01/11 07:54:24;;;;;;;3.85;2.55;;;5.80;44.20;;;;;;4980354;28;20058;-78
2023/01/11 07:56:50;;;;;;;3.53;2.88;;;5.80;44.30;;;;;;4982073;28;20050;-79
2023/01/11 07:59:17;;;;;;;4.13;2.58;;;5.80;44.30;;;;;;4980718;28;20030;-80
2023/01/11 08:01:43;;;;;;;3.20;2.30;;;5.80;44.30;;;;;;4981498;28;20046;-81
2023/01/11 08:04:11;;;;;;;4.68;3.17;;;5.80;44.40;;;;;;4961685;28;20149;-80
2023/01/11 08:06:40;;;;;;;6.18;3.00;;;5.80;44.40;;;;;;4970587;28;20039;-80
2023/01/11 08:09:08;;;;;;;3.85;2.45;;;5.80;44.40;;;;;;4980725;28;20034;-82
2023/01/11 08:17:03;;;;;;;3.13;2.33;;;5.80;44.30;;;;;;4983339;28;20057;-81
2023/01/11 08:19:29;;;;;;;3.00;2.25;;;5.90;44.40;;;;;;4970337;28;20030;-82
2023/01/11 08:21:54;;;;;;;3.05;2.10;;;5.80;44.60;;;;;;4970579;28;20513;-81
2023/01/11 08:24:20;;;;;;;3.40;2.40;;;5.90;44.70;;;;;;4980765;28;20035;-82
2023/01/11 08:26:47;;;;;;;3.67;2.50;;;5.90;44.60;;;;;;4969061;28;20054;-82
2023/01/11 08:29:13;;;;;;;5.53;2.88;;;5.90;44.60;;;;;;4953718;28;20657;-82
2023/01/11 08:31:42;;;;;;;3.67;2.42;;;5.90;44.70;;;;;;4980934;28;20057;-81
2023/01/11 08:34:08;;;;;;;3.35;2.33;;;5.90;44.60;;;;;;4979988;28;20463;-81
2023/01/11 08:36:34;;;;;;;3.95;2.40;;;6.00;44.60;;;;;;4980262;28;20049;-80
2023/01/11 08:39:00;;;;;;;3.45;2.20;;;5.90;44.40;;;;;;4980905;28;20061;-81
2023/01/11 08:41:26;;;;;;;4.57;2.50;;;6.00;44.50;;;;;;4981796;28;20133;-81
2023/01/11 08:43:52;;;;;;;3.75;2.60;;;6.00;44.40;;;;;;4980145;28;20042;-80
2023/01/11 08:46:18;;;;;;;3.67;2.78;;;6.00;44.30;;;;;;4962251;28;20081;-81
2023/01/11 08:48:48;;;;;;;3.72;2.45;;;6.00;44.20;;;;;;4980919;28;20046;-80
2023/01/11 08:51:14;;;;;;;4.85;2.78;;;6.00;44.20;;;;;;4980783;28;20125;-80
2023/01/11 08:53:40;;;;;;;5.63;3.13;;;6.00;44.20;;;;;;4977106;28;20038;-81
2023/01/11 08:56:07;;;;;;;5.15;2.92;;;6.00;44.10;;;;;;4980940;28;20133;-81
2023/01/11 08:58:33;;;;;;;3.53;2.55;;;6.00;44.20;;;;;;4980254;28;20548;-81
2023/01/11 09:01:01;;;;;;;5.25;2.42;;;6.00;44.20;;;;;;4982279;28;20062;-80
2023/01/11 09:03:30;;;;;;;3.22;2.47;;;6.00;44.30;;;;;;4952616;28;20045;-82
2023/01/11 09:05:56;;;;;;;3.70;2.40;;;6.00;44.20;;;;;;4977111;28;20046;-81
2023/01/11 09:08:23;;;;;;;4.75;2.60;;;6.10;44.20;;;;;;4980818;28;20501;-81
2023/01/11 09:10:49;;;;;;;3.70;2.63;;;6.00;44.10;;;;;;4961250;28;20038;-82
2023/01/11 09:13:16;;;;;;;4.45;2.55;;;6.10;44.00;;;;;;4977313;28;20043;-81
2023/01/11 09:15:45;;;;;;;4.72;2.80;;;6.10;44.00;;;;;;4980115;28;20030;-78
2023/01/11 09:18:12;;;;;;;3.30;2.38;;;6.10;44.10;;;;;;4978949;28;20042;-78
2023/01/11 09:20:38;;;;;;;4.07;2.40;;;6.10;44.40;;;;;;4976978;28;20448;-78
2023/01/11 09:23:05;;;;;;;3.63;2.45;;;6.10;44.50;;;;;;4979955;28;20137;-79
2023/01/11 09:25:31;;;;;;;6.60;2.53;;;6.20;44.60;;;;;;4980349;28;20030;-78
2023/01/11 09:27:57;;;;;;;4.15;2.65;;;6.20;44.90;;;;;;4979791;28;20066;-78
2023/01/11 09:30:23;;;;;;;4.32;2.40;;;6.20;45.00;;;;;;4976599;28;20042;-78
2023/01/11 09:32:50;;;;;;;3.65;2.20;;;6.20;45.00;;;;;;4981709;28;20038;-79
2023/01/11 09:35:18;;;;;;;4.00;2.20;;;6.20;44.80;;;;;;4969714;28;20039;-78
2023/01/11 09:37:48;;;;;;;4.97;2.75;;;6.20;44.80;;;;;;4977670;28;20062;-78
2023/01/11 09:40:29;;;;;;;4.63;2.20;;;6.20;44.80;;;;;;4967968;28;20039;-78
2023/01/11 09:43:00;;;;;;;3.13;2.28;;;6.20;44.70;;;;;;4976170;28;20133;-78
2023/01/11 09:45:29;;;;;;;5.15;2.67;;;6.20;44.50;;;;;;4979108;28;20031;-79
2023/01/11 09:48:11;;;;;;;4.03;2.10;;;6.20;44.60;;;;;;4975867;28;20038;-77
2023/01/11 09:50:47;;;;;;;3.53;2.38;;;6.20;44.70;;;;;;4979377;28;20495;-78
2023/01/11 09:53:19;;;;;;;5.65;2.53;;;6.20;44.70;;;;;;4981206;28;20111;-79
2023/01/11 09:55:48;;;;;;;4.40;2.20;;;6.20;44.70;;;;;;4979341;28;20026;-78
2023/01/11 09:58:27;;;;;;;3.88;2.35;;;6.20;44.60;;;;;;4967422;28;20137;-79
2023/01/11 10:00:53;;;;;;;4.68;2.10;;;6.20;44.70;;;;;;4975449;28;20616;-78
2023/01/11 10:03:34;;;;;;;4.55;2.75;;;6.20;44.80;;;;;;4980218;28;20125;-74
2023/01/11 10:06:08;;;;;;;2.97;1.98;;;6.20;45.50;;;;;;4977721;28;20046;-73
2023/01/11 10:09:24;;;;;;;4.18;1.92;;;6.30;64.40;;;;;;4976890;28;20038;-74
2023/01/11 10:12:09;;;;;;;2.40;1.90;;;6.60;64.90;;;;;;4979263;28;20637;-74
2023/01/11 10:14:38;;;;;;;3.67;1.80;;;6.90;64.90;;;;;;4978850;28;20413;-74
2023/01/11 10:17:24;;;;;;;3.78;1.88;;;7.20;64.40;;;;;;4978744;28;20031;-74
2023/01/11 10:20:02;;;;;;;;;;;7.50;63.40;;;;;;4978829;28;20034;-74
2023/01/11 10:22:39;;;;;;;4.18;2.22;;;7.80;61.90;;;;;;4978141;28;20392;-73
2023/01/11 10:25:17;;;;;;;2.72;1.73;;;8.00;61.60;;;;;;4979603;28;20537;-73
2023/01/11 10:27:56;;;;;;;4.00;2.13;;;8.30;60.80;;;;;;4979550;28;20069;-72
2023/01/11 10:30:52;;;;;;;3.72;1.83;;;8.40;60.60;;;;;;4979549;28;20417;-73
2023/01/11 10:39:45;;;;;;;2.08;1.48;;;9.10;58.70;;;;;;4978994;28;20514;-73
2023/01/11 10:42:20;;;;;;;2.03;1.60;;;9.20;58.40;;;;;;4978970;28;20032;-73
2023/01/11 10:45:02;;;;;;;3.55;1.58;;;9.50;58.00;;;;;;4960355;28;20030;-72
2023/01/11 10:47:47;;;;;;;1.77;1.50;;;9.60;57.10;;;;;;4977698;28;20523;-72
2023/01/11 10:50:32;;;;;;;2.00;1.70;;;9.80;56.80;;;;;;4979359;28;20532;-73
2023/01/11 10:53:32;;;;;;;1.77;1.58;;;9.90;56.40;;;;;;4977128;28;20394;-73
2023/01/11 10:56:23;;;;;;;1.83;1.58;;;10.00;55.80;;;;;;4974111;28;20046;-73
2023/01/11 10:59:08;;;;;;;3.95;1.60;;;10.20;55.70;;;;;;4981615;28;20053;-72
2023/01/11 11:01:47;;;;;;;2.20;1.50;;;10.30;55.50;;;;;;4977767;28;20574;-72
2023/01/11 11:04:23;;;;;;;1.98;1.50;;;10.40;55.20;;;;;;4977688;28;20078;-72
2023/01/11 11:07:34;;;;;;;1.60;1.30;;;10.50;55.00;;;;;;4977843;28;20034;-74
2023/01/11 11:10:20;;;;;;;2.83;1.70;;;10.60;54.60;;;;;;4932532;28;20037;-74
2023/01/11 11:12:52;;;;;;;;;;;10.70;54.50;;;;;;4977379;28;20062;-74
2023/01/11 11:15:32;;;;;;;2.30;1.30;;;10.70;54.10;;;;;;4977540;28;19957;-74
2023/01/11 11:17:59;;;;;;;2.95;1.38;;;10.80;54.00;;;;;;4976357;28;20066;-74
2023/01/11 11:20:29;;;;;;;1.80;1.45;;;10.90;54.40;;;;;;4979695;28;20043;-74
2023/01/11 11:22:56;;;;;;;1.45;1.30;;;11.00;53.90;;;;;;4958597;28;20440;-74
2023/01/11 11:25:28;;;;;;;1.75;1.38;;;11.00;53.70;;;;;;4979330;28;20031;-74
2023/01/11 11:28:04;;;;;;;2.50;1.33;;;11.10;54.20;;;;;;4973004;28;20549;-74
2023/01/11 11:30:36;;;;;;;3.38;1.50;;;11.20;53.70;;;;;;4959624;28;20497;-74
2023/01/11 11:33:12;;;;;;;2.85;1.35;;;11.20;53.40;;;;;;4959893;28;20071;-73
2023/01/11 11:35:45;;;;;;;4.70;1.73;;;11.20;53.20;;;;;;4958153;28;20041;-74
2023/01/11 11:38:25;;;;;;;2.72;1.60;;;11.30;53.00;;;;;;4977964;28;20510;-75
2023/01/11 11:41:11;;;;;;;2.38;1.63;;;11.30;52.80;;;;;;4962719;28;20071;-74
2023/01/11 11:43:41;;;;;;;3.13;1.65;;;11.40;53.00;;;;;;4959510;28;20035;-73
2023/01/11 11:46:13;;;;;;;2.38;1.40;;;11.50;52.70;;;;;;4958400;28;20036;-74
2023/01/11 11:48:41;;;;;;;1.45;1.10;;;11.50;52.60;;;;;;4959722;28;20039;-74
2023/01/11 11:51:13;;;;;;;3.42;1.50;;;11.50;52.60;;;;;;4959662;28;20061;-74
2023/01/11 11:53:54;;;;;;;2.05;1.30;;;11.60;53.40;;;;;;4957153;28;20031;-73
2023/01/11 11:56:26;;;;;;;1.67;1.20;;;11.60;52.40;;;;;;4959832;28;20035;-73
2023/01/11 11:58:53;;;;;;;3.17;1.40;;;11.60;52.20;;;;;;4958557;28;20046;-73
2023/01/11 12:01:50;;;;;;;1.85;1.40;;;11.70;52.30;;;;;;4957159;28;20406;-73
2023/01/11 12:04:22;;;;;;;2.35;1.50;;;11.70;52.00;;;;;;4956457;28;20058;-73
2023/01/11 12:07:08;;;;;;;1.80;1.58;;;11.80;52.10;;;;;;4958312;28;20027;-73
2023/01/11 12:09:35;;;;;;;4.25;1.70;;;11.80;52.10;;;;;;4957401;28;20122;-73
2023/01/11 12:12:02;;;;;;;2.00;1.45;;;11.80;51.90;;;;;;4963078;28;20143;-74
2023/01/11 12:14:30;;;;;;;2.33;1.30;;;11.80;51.60;;;;;;4975776;28;20149;-73
2023/01/11 12:17:14;;;;;;;2.58;1.83;;;11.80;51.80;;;;;;4960109;28;20174;-73
2023/01/11 12:19:46;;;;;;;2.13;1.48;;;11.90;51.60;;;;;;4963921;28;20161;-74
2023/01/11 12:22:18;;;;;;;2.35;1.33;;;11.90;51.50;;;;;;4961326;28;20061;-74
2023/01/11 12:24:46;;;;;;;2.03;1.20;;;11.90;51.60;;;;;;4962966;28;20049;-73
2023/01/11 12:27:33;;;;;;;2.10;1.60;;;11.90;51.50;;;;;;4970526;28;20437;-74
2023/01/11 12:30:07;;;;;;;2.65;1.50;;;11.90;51.50;;;;;;4981036;28;20031;-74
2023/01/11 12:33:04;;;;;;;2.42;1.38;;;11.90;51.40;;;;;;4969532;28;21205;-73
2023/01/11 12:36:03;;;;;;;1.58;1.40;;;11.90;51.40;;;;;;4954216;28;20152;-74
2023/01/11 12:38:40;;;;;;;1.95;1.40;;;12.00;51.30;;;;;;4979184;28;20497;-74
2023/01/11 12:41:49;;;;;;;2.30;1.40;;;12.00;51.70;;;;;;4982565;28;20093;-74
2023/01/11 12:44:43;;;;;;;2.03;1.70;;;12.00;51.10;;;;;;4980522;28;20038;-73
2023/01/11 12:47:34;;;;;;;1.98;1.25;;;12.00;51.10;;;;;;4979130;28;20521;-74
2023/01/11 12:50:06;;;;;;;2.60;1.45;;;12.00;51.10;;;;;;4980578;28;20476;-74
2023/01/11 12:53:11;;;;;;;2.28;1.40;;;12.00;51.00;;;;;;4979948;28;20239;-74
2023/01/11 12:56:06;;;;;;;2.03;1.63;;;12.00;51.10;;;;;;4967523;28;20468;-73
2023/01/11 12:58:39;;;;;;;2.25;1.52;;;12.00;51.00;;;;;;4978191;28;20532;-73
2023/01/11 13:01:13;;;;;;;2.03;1.20;;;12.00;50.80;;;;;;4982586;28;20088;-73
2023/01/11 13:04:08;;;;;;;2.47;1.40;;;12.00;50.90;;;;;;4970123;28;20060;-73
2023/01/11 13:06:55;;;;;;;2.78;1.60;;;12.00;50.90;;;;;;4945784;28;20038;-73
2023/01/11 13:09:36;;;;;;;4.63;1.50;;;12.10;50.80;;;;;;4980199;28;20038;-73
2023/01/11 13:12:15;;;;;;;1.77;1.38;;;12.00;50.80;;;;;;4979920;28;20031;-73
2023/01/11 13:15:07;;;;;;;2.00;1.40;;;12.10;50.70;;;;;;4979197;28;20065;-73
2023/01/11 13:18:00;;;;;;;2.35;1.52;;;12.10;50.70;;;;;;4976288;28;20057;-73
2023/01/11 13:20:45;;;;;;;4.35;1.50;;;12.10;50.50;;;;;;4978573;28;20083;-73
2023/01/11 13:23:28;;;;;;;3.92;1.60;;;12.10;50.60;;;;;;4979224;28;20057;-73
2023/01/11 13:25:55;;;;;;;2.22;1.48;;;12.10;50.50;;;;;;4975810;28;20410;-73
2023/01/11 13:28:42;;;;;;;2.88;1.65;;;12.10;50.50;;;;;;4964729;28;20041;-73
2023/01/11 13:31:11;;;;;;;4.07;1.40;;;12.10;50.60;;;;;;4968790;28;20065;-74
2023/01/11 13:33:42;;;;;;;3.30;1.50;;;12.10;50.50;;;;;;4980441;28;20034;-73
2023/01/11 13:36:18;;;;;;;3.00;1.33;;;12.10;50.50;;;;;;4977633;28;20030;-73
2023/01/11 13:39:08;;;;;;;2.35;1.40;;;12.10;50.40;;;;;;4980720;28;20041;-73
2023/01/11 13:41:45;;;;;;;3.08;1.58;;;12.10;50.40;;;;;;4960319;28;20465;-73
2023/01/11 13:44:19;;;;;;;3.65;1.20;;;12.10;50.40;;;;;;4977120;28;20023;-73
2023/01/11 13:46:57;;;;;;;2.40;1.55;;;12.10;50.20;;;;;;4980576;28;20035;-73
2023/01/11 13:50:01;;;;;;;2.00;1.30;;;12.10;50.40;;;;;;4961870;28;20105;-73
2023/01/11 13:52:51;;;;;;;4.97;1.40;;;12.10;50.40;;;;;;4979296;28;20042;-73
2023/01/11 13:55:42;;;;;;;3.72;1.70;;;12.10;50.30;;;;;;4978859;28;20440;-77